Time;durP1;ratioP1;P1;durP2;ratioP2;P2;SDS_P1;SDS_P2;PMS_P1;PMS_P2;Temp;Humidity;BMP_temperature;BMP_pressure;BME280_temperature;BME280_humidity;BME280_pressure;Samples;Min_cycle;Max_cycle;Signal;HPM_P1;HPM_P2
2023/08/12 00:01:21;;;;;;;3.53;3.33;;;24.10;95.30;;;;;;4977264;28;20430;-86
2023/08/12 00:03:47;;;;;;;3.40;3.10;;;24.10;95.30;;;;;;4976748;28;20498;-85
2023/08/12 00:06:14;;;;;;;3.50;2.70;;;24.20;95.70;;;;;;4976994;28;20447;-86
2023/08/12 00:08:41;;;;;;;3.00;2.80;;;24.10;95.30;;;;;;4976776;28;20454;-87
2023/08/12 00:11:08;;;;;;;2.60;2.40;;;24.10;95.30;;;;;;4977037;28;20441;-86
2023/08/12 00:13:35;;;;;;;3.47;3.10;;;24.10;95.30;;;;;;4976781;28;20940;-86
2023/08/12 00:16:03;;;;;;;2.83;2.57;;;24.10;95.30;;;;;;4976830;28;20536;-85
2023/08/12 00:18:29;;;;;;;3.30;3.00;;;24.10;95.30;;;;;;4976736;28;20445;-87
2023/08/12 00:20:57;;;;;;;3.90;2.67;;;24.10;95.30;;;;;;4976576;28;20434;-85
2023/08/12 00:23:24;;;;;;;3.30;3.00;;;24.10;95.30;;;;;;4976763;28;20850;-91
2023/08/12 00:25:50;;;;;;;2.33;2.23;;;24.10;95.30;;;;;;4976847;28;20962;-86
2023/08/12 00:28:17;;;;;;;3.53;2.80;;;24.10;95.40;;;;;;4976454;28;20929;-86
2023/08/12 00:30:44;;;;;;;2.57;2.40;;;24.10;95.30;;;;;;4976637;28;20537;-86
2023/08/12 00:33:12;;;;;;;2.80;2.57;;;24.10;95.30;;;;;;4976373;28;20445;-85
2023/08/12 00:35:39;;;;;;;2.67;2.40;;;24.10;95.40;;;;;;4975589;28;20448;-85
2023/08/12 00:38:06;;;;;;;3.37;2.77;;;24.10;95.30;;;;;;4976548;28;20449;-85
2023/08/12 00:40:32;;;;;;;2.87;2.67;;;24.10;95.40;;;;;;4976467;28;20533;-92
2023/08/12 00:42:59;;;;;;;2.70;2.50;;;24.10;95.40;;;;;;4975726;28;20449;-84
2023/08/12 00:45:26;;;;;;;2.53;2.33;;;24.10;95.40;;;;;;4962196;28;20490;-85
2023/08/12 00:47:53;;;;;;;3.20;2.90;;;24.10;95.40;;;;;;4976283;28;20533;-85
2023/08/12 00:50:22;;;;;;;2.50;2.30;;;24.10;95.40;;;;;;4975843;28;20453;-84
2023/08/12 00:52:49;;;;;;;2.60;2.40;;;24.10;95.30;;;;;;4976016;28;20478;-83
2023/08/12 00:55:17;;;;;;;2.63;2.43;;;24.10;95.30;;;;;;4976162;28;20450;-83
2023/08/12 00:57:44;;;;;;;2.53;2.03;;;24.00;95.30;;;;;;4975957;28;20449;-84
2023/08/12 01:00:12;;;;;;;2.80;2.60;;;24.10;95.40;;;;;;4975787;28;20510;-84
2023/08/12 01:02:39;;;;;;;2.80;2.60;;;24.10;95.40;;;;;;4977363;28;20938;-84
2023/08/12 01:05:07;;;;;;;2.73;2.53;;;24.10;95.40;;;;;;4977165;28;20496;-85
2023/08/12 01:07:35;;;;;;;2.70;2.50;;;24.10;95.40;;;;;;4976222;28;20941;-86
2023/08/12 01:10:02;;;;;;;2.47;2.27;;;24.10;95.40;;;;;;4975968;28;20443;-86
2023/08/12 01:12:34;;;;;;;2.50;2.30;;;24.10;95.40;;;;;;4975595;28;20451;-85
2023/08/12 01:15:08;;;;;;;3.50;3.17;;;24.10;95.40;;;;;;4975644;28;20790;-86
2023/08/12 01:17:38;;;;;;;2.43;2.23;;;24.10;95.40;;;;;;4975481;28;20445;-85
2023/08/12 01:20:09;;;;;;;2.70;2.07;;;24.10;95.30;;;;;;4975525;28;20478;-86
2023/08/12 01:22:39;;;;;;;2.20;1.93;;;24.10;95.30;;;;;;4975313;28;20461;-85
2023/08/12 01:25:09;;;;;;;2.63;2.43;;;24.10;95.40;;;;;;4975586;28;20484;-86
2023/08/12 01:27:36;;;;;;;3.07;2.70;;;24.10;95.40;;;;;;4975415;28;20446;-84
2023/08/12 01:30:05;;;;;;;2.17;2.07;;;24.10;95.40;;;;;;4975461;28;20435;-85
2023/08/12 01:32:39;;;;;;;2.50;2.30;;;24.00;95.30;;;;;;4975327;28;20443;-86
2023/08/12 01:35:11;;;;;;;2.80;2.60;;;24.10;95.40;;;;;;4975601;28;20457;-88
2023/08/12 01:37:40;;;;;;;2.40;2.20;;;24.10;95.30;;;;;;4975462;28;20438;-86
2023/08/12 01:40:11;;;;;;;2.40;2.20;;;24.00;95.20;;;;;;4975380;28;20437;-85
2023/08/12 01:42:40;;;;;;;2.50;2.30;;;24.10;95.20;;;;;;4975146;28;20547;-88
2023/08/12 01:45:08;;;;;;;2.00;1.90;;;24.10;95.30;;;;;;4974857;28;20918;-87
2023/08/12 01:47:35;;;;;;;2.53;2.30;;;24.00;95.20;;;;;;4974881;28;20445;-87
2023/08/12 01:50:01;;;;;;;2.50;2.30;;;24.10;95.30;;;;;;4974934;28;20614;-85
2023/08/12 01:52:28;;;;;;;2.20;2.03;;;24.10;95.30;;;;;;4974856;28;20453;-86
2023/08/12 01:54:55;;;;;;;2.97;2.40;;;24.10;95.30;;;;;;4975056;28;20953;-88
2023/08/12 01:57:24;;;;;;;2.70;2.50;;;24.10;95.30;;;;;;4975307;28;20454;-91
2023/08/12 02:03:18;;;;;;;2.83;2.57;;;24.10;95.30;;;;;;4975223;28;20426;-85
2023/08/12 02:05:53;;;;;;;1.83;1.73;;;24.00;95.20;;;;;;4974983;28;20569;-90
2023/08/12 02:08:20;;;;;;;1.97;1.87;;;24.10;95.20;;;;;;4974891;28;20448;-87
2023/08/12 02:10:47;;;;;;;2.40;2.20;;;24.20;95.10;;;;;;4975081;28;20795;-86
2023/08/12 02:13:15;;;;;;;2.40;2.20;;;24.00;95.00;;;;;;4974830;28;20520;-86
2023/08/12 02:15:41;;;;;;;1.70;1.60;;;24.10;95.00;;;;;;4974809;28;20540;-86
2023/08/12 02:18:08;;;;;;;2.50;2.30;;;24.10;95.10;;;;;;4974526;28;20438;-86
2023/08/12 02:20:35;;;;;;;2.87;2.67;;;24.10;94.90;;;;;;4975018;28;20863;-84
2023/08/12 02:23:02;;;;;;;1.90;1.80;;;24.10;95.00;;;;;;4974512;28;20462;-86
2023/08/12 02:25:28;;;;;;;2.67;2.47;;;24.10;95.00;;;;;;4974523;28;20498;-86
2023/08/12 02:27:55;;;;;;;2.20;2.00;;;24.10;95.00;;;;;;4974388;28;20464;-85
2023/08/12 02:30:23;;;;;;;2.53;2.33;;;24.10;95.00;;;;;;4974607;28;20794;-86
2023/08/12 02:32:50;;;;;;;2.00;1.77;;;24.10;95.00;;;;;;4974750;28;20440;-86
2023/08/12 02:35:18;;;;;;;3.40;2.20;;;24.10;95.00;;;;;;4974710;28;20803;-86
2023/08/12 02:37:45;;;;;;;2.07;1.90;;;24.10;95.10;;;;;;4974542;28;20439;-85
2023/08/12 02:40:12;;;;;;;2.27;2.00;;;24.10;95.00;;;;;;4974520;28;20448;-85
2023/08/12 02:42:39;;;;;;;2.10;2.00;;;24.10;95.40;;;;;;4974725;28;20438;-85
2023/08/12 02:45:07;;;;;;;1.90;1.80;;;24.20;95.00;;;;;;4974310;28;20494;-86
2023/08/12 02:47:35;;;;;;;1.90;1.80;;;24.10;95.00;;;;;;4974424;28;20439;-85
2023/08/12 02:50:02;;;;;;;2.47;2.27;;;24.10;95.00;;;;;;4974005;28;20446;-86
2023/08/12 02:52:29;;;;;;;2.13;1.97;;;24.10;95.10;;;;;;4974184;28;20494;-86
2023/08/12 02:54:56;;;;;;;1.90;1.50;;;24.10;95.10;;;;;;4974382;28;20447;-86
2023/08/12 02:57:23;;;;;;;3.23;2.03;;;24.10;95.10;;;;;;4974434;28;20541;-86
2023/08/12 02:59:49;;;;;;;2.40;2.20;;;24.10;95.10;;;;;;4977155;28;20869;-86
2023/08/12 03:02:16;;;;;;;1.93;1.83;;;24.10;95.10;;;;;;4978212;28;20923;-84
2023/08/12 03:04:44;;;;;;;1.80;1.70;;;24.10;95.10;;;;;;4978070;28;20503;-86
2023/08/12 03:07:11;;;;;;;2.07;1.90;;;24.10;95.10;;;;;;4977713;28;20515;-85
2023/08/12 03:09:38;;;;;;;2.10;2.00;;;24.10;95.10;;;;;;4977778;28;20518;-84
2023/08/12 03:12:05;;;;;;;1.77;1.67;;;24.10;95.10;;;;;;4977899;28;20920;-86
2023/08/12 03:14:32;;;;;;;2.37;2.17;;;24.10;95.10;;;;;;4978060;28;20445;-85
2023/08/12 03:16:59;;;;;;;2.20;2.00;;;24.10;95.10;;;;;;4977853;28;20526;-85
2023/08/12 03:19:26;;;;;;;1.83;1.73;;;24.10;95.10;;;;;;4977965;28;20440;-86
2023/08/12 03:21:55;;;;;;;2.00;1.80;;;24.10;95.10;;;;;;4977262;28;20465;-85
2023/08/12 03:24:22;;;;;;;1.97;1.73;;;24.10;95.10;;;;;;4977243;28;20447;-85
2023/08/12 03:26:49;;;;;;;1.67;1.57;;;24.10;95.10;;;;;;4977426;28;20453;-85
2023/08/12 03:29:15;;;;;;;2.33;2.13;;;24.10;95.10;;;;;;4977497;28;20446;-85
2023/08/12 03:31:42;;;;;;;2.20;2.00;;;24.10;95.10;;;;;;4977525;28;20441;-85
2023/08/12 03:34:09;;;;;;;2.17;1.80;;;24.10;95.10;;;;;;4977363;28;20941;-85
2023/08/12 03:36:36;;;;;;;2.27;2.10;;;24.10;95.10;;;;;;4977290;28;20453;-85
2023/08/12 03:39:04;;;;;;;1.73;1.63;;;24.10;95.10;;;;;;4977207;28;20537;-85
2023/08/12 03:41:31;;;;;;;1.73;1.63;;;24.10;95.10;;;;;;4977220;28;20533;-86
2023/08/12 03:43:58;;;;;;;2.07;1.97;;;24.10;95.10;;;;;;4977331;28;20539;-84
2023/08/12 03:46:25;;;;;;;1.80;1.70;;;24.10;95.10;;;;;;4976908;28;20684;-86
2023/08/12 03:48:52;;;;;;;2.07;1.87;;;24.00;95.00;;;;;;4977315;28;20442;-85
2023/08/12 03:51:18;;;;;;;1.67;1.57;;;24.00;95.00;;;;;;4977064;28;20472;-85
2023/08/12 03:53:45;;;;;;;2.20;2.07;;;24.10;95.00;;;;;;4976973;28;20450;-86
2023/08/12 03:56:15;;;;;;;1.60;1.50;;;24.10;95.00;;;;;;4976714;28;20520;-86
2023/08/12 03:58:41;;;;;;;1.70;1.60;;;24.10;95.00;;;;;;4976727;28;20447;-85
2023/08/12 04:01:08;;;;;;;1.53;1.43;;;24.00;94.90;;;;;;4976980;28;20836;-85
2023/08/12 04:03:35;;;;;;;2.13;2.03;;;24.10;95.00;;;;;;4976862;28;20945;-87
2023/08/12 04:06:03;;;;;;;1.90;1.80;;;24.10;95.00;;;;;;4976619;28;20488;-86
2023/08/12 04:08:32;;;;;;;2.37;2.20;;;24.10;95.00;;;;;;4976907;28;20800;-84
2023/08/12 04:10:59;;;;;;;2.20;2.00;;;24.10;95.00;;;;;;4976699;28;20504;-87
2023/08/12 04:13:27;;;;;;;1.80;1.70;;;24.10;95.10;;;;;;4976628;28;20436;-87
2023/08/12 04:15:54;;;;;;;1.80;1.70;;;24.10;95.00;;;;;;4976848;28;20444;-85
2023/08/12 04:18:21;;;;;;;2.20;2.07;;;24.00;94.90;;;;;;4976588;28;20437;-85
2023/08/12 04:20:49;;;;;;;1.90;1.70;;;24.10;95.10;;;;;;4976498;28;20535;-87
2023/08/12 04:23:16;;;;;;;1.60;1.50;;;24.00;95.00;;;;;;4976649;28;20463;-85
2023/08/12 04:25:44;;;;;;;2.10;2.00;;;24.00;95.10;;;;;;4976583;28;20841;-86
2023/08/12 04:28:11;;;;;;;1.93;1.83;;;24.10;95.10;;;;;;4976115;28;20469;-84
2023/08/12 04:30:42;;;;;;;1.83;1.73;;;24.00;95.10;;;;;;4976630;28;20797;-86
2023/08/12 04:33:09;;;;;;;1.70;1.60;;;24.00;95.10;;;;;;4976630;28;20897;-86
2023/08/12 04:35:36;;;;;;;1.93;1.73;;;24.00;95.10;;;;;;4976502;28;20533;-86
2023/08/12 04:38:03;;;;;;;2.20;2.00;;;24.00;95.00;;;;;;4976260;28;20436;-86
2023/08/12 04:40:30;;;;;;;1.80;1.70;;;24.00;95.00;;;;;;4976345;28;20956;-85
2023/08/12 04:42:57;;;;;;;2.27;2.07;;;24.10;95.10;;;;;;4976011;28;20960;-87
2023/08/12 04:45:24;;;;;;;1.63;1.53;;;24.00;95.40;;;;;;4975958;28;20496;-86
2023/08/12 04:47:52;;;;;;;1.47;1.37;;;24.00;95.00;;;;;;4976174;28;20850;-86
2023/08/12 04:50:19;;;;;;;2.10;2.00;;;24.00;95.00;;;;;;4976160;28;20458;-87
2023/08/12 04:52:46;;;;;;;1.70;1.60;;;24.00;94.90;;;;;;4976258;28;20535;-86
2023/08/12 04:55:13;;;;;;;1.90;1.80;;;24.00;95.00;;;;;;4976186;28;20446;-85
2023/08/12 04:57:40;;;;;;;1.77;1.67;;;24.00;94.90;;;;;;4975729;28;20936;-86
2023/08/12 05:00:08;;;;;;;1.73;1.63;;;24.00;94.90;;;;;;4976102;28;20437;-86
2023/08/12 05:02:34;;;;;;;2.20;2.00;;;24.00;95.00;;;;;;4975677;28;20486;-86
2023/08/12 05:05:03;;;;;;;2.03;1.93;;;24.00;94.90;;;;;;4975810;28;20448;-85
2023/08/12 05:07:31;;;;;;;2.30;2.00;;;24.00;95.00;;;;;;4975832;28;20437;-85
2023/08/12 05:09:58;;;;;;;2.10;1.73;;;24.10;95.10;;;;;;4975665;28;20930;-85
2023/08/12 05:12:24;;;;;;;1.77;1.67;;;24.10;95.10;;;;;;4975666;28;20528;-86
2023/08/12 05:14:51;;;;;;;1.83;1.73;;;24.00;95.40;;;;;;4975903;28;20449;-85
2023/08/12 05:17:18;;;;;;;1.83;1.73;;;24.00;95.00;;;;;;4975732;28;20449;-88
2023/08/12 05:19:45;;;;;;;1.47;1.37;;;24.10;95.10;;;;;;4975594;28;20441;-86
2023/08/12 05:22:13;;;;;;;1.97;1.77;;;24.00;95.10;;;;;;4974706;28;20593;-85
2023/08/12 05:24:40;;;;;;;1.90;1.80;;;24.10;95.10;;;;;;4975565;28;20536;-84
2023/08/12 05:27:07;;;;;;;2.20;1.90;;;24.10;95.10;;;;;;4975172;28;20492;-85
2023/08/12 05:29:33;;;;;;;2.37;2.17;;;24.10;95.10;;;;;;4975289;28;20539;-85
2023/08/12 05:32:00;;;;;;;1.90;1.60;;;24.00;95.00;;;;;;4975693;28;20435;-86
2023/08/12 05:34:27;;;;;;;2.10;1.90;;;24.10;95.00;;;;;;4975140;28;20444;-86
2023/08/12 05:36:54;;;;;;;1.87;1.60;;;24.00;95.00;;;;;;4974997;28;20452;-85
2023/08/12 05:39:22;;;;;;;1.47;1.37;;;24.00;95.00;;;;;;4975152;28;20544;-85
2023/08/12 05:41:49;;;;;;;2.07;1.80;;;24.10;95.10;;;;;;4975001;28;20444;-85
2023/08/12 05:44:16;;;;;;;2.17;1.97;;;24.10;95.10;;;;;;4975279;28;20443;-85
2023/08/12 05:46:43;;;;;;;1.97;1.87;;;24.00;95.00;;;;;;4974660;28;20988;-86
2023/08/12 05:49:10;;;;;;;1.90;1.80;;;24.00;95.00;;;;;;4974969;28;20447;-86
2023/08/12 05:51:38;;;;;;;1.87;1.77;;;24.10;95.10;;;;;;4974956;28;20552;-85
2023/08/12 05:54:05;;;;;;;2.00;1.90;;;24.00;95.00;;;;;;4975107;28;20545;-86
2023/08/12 05:56:33;;;;;;;2.00;1.83;;;24.00;95.00;;;;;;4974812;28;20945;-86
2023/08/12 05:59:00;;;;;;;1.97;1.87;;;24.10;95.10;;;;;;4974827;28;20447;-89
2023/08/12 06:01:27;;;;;;;1.67;1.57;;;24.10;95.10;;;;;;4974876;28;20441;-86
2023/08/12 06:03:53;;;;;;;1.90;1.80;;;24.10;95.10;;;;;;4974868;28;20506;-86
2023/08/12 06:06:21;;;;;;;1.70;1.60;;;24.10;95.10;;;;;;4974749;28;20484;-86
2023/08/12 06:08:48;;;;;;;1.67;1.57;;;24.10;95.10;;;;;;4974453;28;20447;-86
2023/08/12 06:11:15;;;;;;;1.90;1.60;;;24.10;95.10;;;;;;4974874;28;20789;-87
2023/08/12 06:13:43;;;;;;;1.60;1.50;;;24.10;95.10;;;;;;4974552;28;20533;-85
2023/08/12 06:16:10;;;;;;;1.60;1.50;;;24.00;95.00;;;;;;4974194;28;20531;-87
2023/08/12 06:18:36;;;;;;;2.10;2.00;;;24.00;95.10;;;;;;4974419;28;20452;-88
2023/08/12 06:21:03;;;;;;;2.20;1.83;;;24.00;95.10;;;;;;4974362;28;20568;-88
2023/08/12 06:23:31;;;;;;;1.90;1.80;;;24.00;95.50;;;;;;4974439;28;20526;-88
2023/08/12 06:25:57;;;;;;;2.43;1.77;;;24.00;95.60;;;;;;4974584;28;20485;-88
2023/08/12 06:28:24;;;;;;;2.00;1.80;;;24.00;95.80;;;;;;4974174;28;20810;-88
2023/08/12 06:30:53;;;;;;;1.80;1.70;;;24.00;95.80;;;;;;4974607;28;20545;-90
2023/08/12 06:33:20;;;;;;;2.30;2.20;;;24.00;95.90;;;;;;4977021;28;20447;-88
2023/08/12 06:35:46;;;;;;;2.20;2.00;;;24.00;96.00;;;;;;4978465;28;21031;-88
2023/08/12 06:38:14;;;;;;;1.93;1.83;;;24.00;96.00;;;;;;4978596;28;20447;-88
2023/08/12 06:40:40;;;;;;;5.10;1.80;;;24.00;96.00;;;;;;4978453;28;20445;-88
2023/08/12 06:43:08;;;;;;;2.37;2.00;;;24.00;96.10;;;;;;4978315;28;20504;-88
2023/08/12 06:45:35;;;;;;;1.90;1.80;;;24.00;96.10;;;;;;4978022;28;20533;-87
2023/08/12 06:48:04;;;;;;;2.63;1.93;;;24.00;96.10;;;;;;4978591;28;20445;-87
2023/08/12 06:50:33;;;;;;;2.03;1.93;;;24.00;96.20;;;;;;4978178;28;20977;-88
2023/08/12 06:52:59;;;;;;;2.23;2.13;;;24.00;96.00;;;;;;4978303;28;20440;-88
2023/08/12 06:55:27;;;;;;;2.30;2.10;;;24.00;96.00;;;;;;4978100;28;20441;-90
2023/08/12 06:57:54;;;;;;;2.07;1.90;;;24.00;96.00;;;;;;4978532;28;20508;-90
2023/08/12 07:00:21;;;;;;;2.27;2.07;;;24.00;95.80;;;;;;4978346;28;20446;-91
2023/08/12 07:02:48;;;;;;;2.30;2.10;;;24.00;95.80;;;;;;4978118;28;20535;-85
2023/08/12 07:05:16;;;;;;;2.43;2.00;;;24.00;95.70;;;;;;4978134;28;20441;-86
2023/08/12 07:07:43;;;;;;;2.93;2.27;;;24.00;95.80;;;;;;4977880;28;20489;-86
2023/08/12 07:10:11;;;;;;;1.93;1.83;;;24.00;95.60;;;;;;4978163;28;20448;-86
2023/08/12 07:12:37;;;;;;;2.07;1.87;;;24.10;95.70;;;;;;4977872;28;20520;-87
2023/08/12 07:15:05;;;;;;;1.80;1.70;;;24.10;95.70;;;;;;4977748;28;20537;-86
2023/08/12 07:17:32;;;;;;;2.43;1.67;;;24.10;95.70;;;;;;4977958;28;20536;-88
2023/08/12 07:19:59;;;;;;;1.87;1.77;;;24.10;95.70;;;;;;4977761;28;20522;-87
2023/08/12 07:22:27;;;;;;;3.50;2.03;;;24.10;95.70;;;;;;4977622;28;20464;-87
2023/08/12 07:24:54;;;;;;;2.20;1.80;;;24.10;95.80;;;;;;4977634;28;20964;-87
2023/08/12 07:27:21;;;;;;;2.73;1.87;;;24.10;95.70;;;;;;4977692;28;20855;-87
2023/08/12 07:29:48;;;;;;;2.20;1.87;;;24.10;95.70;;;;;;4977627;28;20442;-89
2023/08/12 07:32:14;;;;;;;2.97;2.47;;;24.10;95.70;;;;;;4977586;28;20440;-90
2023/08/12 07:34:41;;;;;;;1.70;1.57;;;24.10;96.20;;;;;;4977390;28;20521;-88
2023/08/12 07:37:08;;;;;;;3.30;2.03;;;24.10;96.00;;;;;;4978029;28;20445;-88
2023/08/12 07:39:36;;;;;;;2.33;1.77;;;24.10;96.00;;;;;;4977312;28;20936;-88
2023/08/12 07:42:03;;;;;;;1.83;1.70;;;24.10;95.90;;;;;;4977387;28;20528;-87
2023/08/12 07:44:30;;;;;;;2.00;1.90;;;24.10;96.00;;;;;;4976864;28;20514;-87
2023/08/12 07:46:57;;;;;;;5.27;1.93;;;24.10;95.90;;;;;;4977064;28;20494;-86
2023/08/12 07:49:24;;;;;;;1.77;1.40;;;24.10;96.00;;;;;;4977098;28;20449;-89
2023/08/12 07:51:51;;;;;;;2.60;1.80;;;24.10;96.00;;;;;;4977170;28;20475;-86
2023/08/12 07:54:18;;;;;;;3.00;1.73;;;24.10;96.00;;;;;;4977067;28;20451;-86
2023/08/12 07:56:46;;;;;;;1.90;1.70;;;24.10;96.30;;;;;;4977008;28;20773;-86
2023/08/12 07:59:13;;;;;;;7.73;1.90;;;24.10;96.40;;;;;;4977339;28;20798;-89
2023/08/12 08:01:39;;;;;;;2.47;1.87;;;24.10;96.50;;;;;;4977138;28;20528;-87
2023/08/12 08:04:07;;;;;;;9.53;2.07;;;24.10;96.60;;;;;;4977349;28;20520;-87
2023/08/12 08:06:33;;;;;;;3.47;1.90;;;24.10;96.60;;;;;;4977138;28;20488;-90
2023/08/12 08:09:03;;;;;;;3.73;2.23;;;24.10;96.60;;;;;;4977189;28;20448;-87
2023/08/12 08:11:30;;;;;;;2.10;1.67;;;24.10;96.60;;;;;;4977432;28;20441;-88
2023/08/12 08:13:59;;;;;;;2.23;2.03;;;24.10;96.60;;;;;;4976484;28;20477;-85
2023/08/12 08:16:25;;;;;;;4.90;2.10;;;24.20;96.70;;;;;;4976346;28;20544;-89
2023/08/12 08:18:52;;;;;;;3.93;2.00;;;24.10;96.60;;;;;;4977104;28;20448;-84
2023/08/12 08:21:19;;;;;;;3.73;1.90;;;24.10;96.50;;;;;;4976459;28;20573;-85
2023/08/12 08:23:47;;;;;;;2.23;2.03;;;24.10;96.40;;;;;;4976320;28;20532;-85
2023/08/12 08:26:15;;;;;;;1.50;1.40;;;24.10;96.50;;;;;;4976159;28;20491;-83
2023/08/12 08:28:42;;;;;;;1.97;1.77;;;24.20;96.50;;;;;;4976037;28;21092;-83
2023/08/12 08:31:10;;;;;;;2.63;1.80;;;24.10;96.60;;;;;;4975879;28;20480;-82
2023/08/12 08:33:37;;;;;;;2.40;2.30;;;24.10;96.60;;;;;;4975380;28;20449;-86
2023/08/12 08:36:05;;;;;;;2.40;2.20;;;24.10;96.50;;;;;;4979074;28;20458;-84
2023/08/12 08:38:34;;;;;;;1.67;1.57;;;24.10;96.40;;;;;;4979604;28;20556;-83
2023/08/12 08:41:05;;;;;;;2.23;1.97;;;24.10;96.60;;;;;;4978554;28;20429;-85
2023/08/12 08:43:36;;;;;;;3.07;2.03;;;24.20;96.60;;;;;;4978211;28;20853;-83
2023/08/12 08:46:03;;;;;;;1.90;1.73;;;24.20;96.50;;;;;;4976922;28;20568;-82
2023/08/12 08:48:34;;;;;;;2.13;1.50;;;24.20;96.40;;;;;;4977461;28;20528;-82
2023/08/12 08:51:02;;;;;;;2.73;1.50;;;24.20;96.50;;;;;;4978147;28;20518;-83
2023/08/12 08:53:33;;;;;;;2.27;1.70;;;24.20;96.40;;;;;;4978793;28;20441;-84
2023/08/12 08:56:01;;;;;;;2.53;1.90;;;24.20;96.70;;;;;;4976769;28;20803;-85
2023/08/12 08:58:28;;;;;;;4.13;1.90;;;24.20;96.80;;;;;;4977814;28;20544;-85
2023/08/12 09:00:55;;;;;;;9.30;4.40;;;24.20;97.20;;;;;;4975854;28;20574;-92
2023/08/12 09:03:22;;;;;;;10.60;7.00;;;24.20;96.90;;;;;;4975774;28;20536;-89
2023/08/12 09:05:52;;;;;;;22.77;10.30;;;24.20;97.10;;;;;;4975799;28;20999;-88
2023/08/12 09:08:19;;;;;;;11.07;7.77;;;24.20;97.20;;;;;;4975519;28;20490;-89
2023/08/12 09:10:48;;;;;;;21.23;10.60;;;24.20;97.50;;;;;;4956205;29;20445;-89
2023/08/12 09:13:18;;;;;;;20.77;9.43;;;24.20;97.40;;;;;;4956208;29;20501;-89
2023/08/12 09:15:44;;;;;;;19.67;11.43;;;24.20;97.70;;;;;;4956501;29;20531;-84
2023/08/12 09:18:11;;;;;;;19.67;8.63;;;24.20;97.70;;;;;;4967046;28;20455;-86
2023/08/12 09:20:38;;;;;;;20.83;9.90;;;24.20;97.90;;;;;;4973246;28;20493;-84
2023/08/12 09:23:08;;;;;;;14.90;8.20;;;24.20;98.30;;;;;;4976236;28;20459;-83
2023/08/12 09:25:35;;;;;;;16.07;6.70;;;24.30;98.00;;;;;;4977776;28;20454;-83
2023/08/12 09:28:03;;;;;;;10.03;6.40;;;24.20;97.70;;;;;;4980034;28;20492;-83
2023/08/12 09:30:31;;;;;;;19.20;9.53;;;24.20;97.80;;;;;;4981553;28;20537;-83
2023/08/12 09:33:01;;;;;;;14.73;7.80;;;24.20;98.00;;;;;;4981580;28;20451;-82
2023/08/12 09:35:33;;;;;;;16.70;6.70;;;24.20;97.80;;;;;;4981226;28;20430;-88
2023/08/12 09:38:02;;;;;;;10.37;6.40;;;24.20;97.90;;;;;;4978887;28;20456;-85
2023/08/12 09:40:32;;;;;;;9.27;7.33;;;24.20;98.00;;;;;;4979339;28;20501;-87
2023/08/12 09:42:59;;;;;;;9.80;5.23;;;24.20;98.00;;;;;;4978008;28;20529;-88
2023/08/12 09:45:26;;;;;;;11.53;5.30;;;24.20;98.00;;;;;;4977669;28;20560;-89
2023/08/12 09:47:54;;;;;;;10.60;4.90;;;24.20;97.90;;;;;;4977382;28;20489;-85
2023/08/12 09:50:23;;;;;;;10.90;5.23;;;24.20;97.90;;;;;;4977895;28;20474;-92
2023/08/12 09:52:51;;;;;;;10.33;6.10;;;24.20;97.80;;;;;;4977474;28;20480;-93
2023/08/12 09:55:20;;;;;;;15.47;7.10;;;24.20;97.70;;;;;;4977716;28;20459;-90
2023/08/12 09:57:52;;;;;;;11.17;5.23;;;24.20;97.90;;;;;;4977999;28;20462;-91
2023/08/12 10:00:20;;;;;;;11.50;6.20;;;24.20;97.80;;;;;;4977323;28;20496;-87
2023/08/12 10:02:49;;;;;;;14.23;7.17;;;24.20;97.90;;;;;;4976944;28;20452;-87
2023/08/12 10:05:20;;;;;;;15.37;8.00;;;24.20;97.90;;;;;;4978051;28;20449;-83
2023/08/12 10:07:48;;;;;;;17.03;11.33;;;24.20;98.20;;;;;;4977108;28;20526;-83
2023/08/12 10:10:16;;;;;;;18.90;10.97;;;24.30;98.70;;;;;;4977351;28;20451;-90
2023/08/12 10:12:43;;;;;;;16.97;7.93;;;24.30;98.40;;;;;;4978224;28;20834;-88
2023/08/12 10:15:12;;;;;;;15.57;8.17;;;24.30;98.60;;;;;;4978924;28;20434;-89
2023/08/12 10:17:41;;;;;;;12.90;6.47;;;24.30;98.60;;;;;;4978617;28;20444;-89
2023/08/12 10:20:10;;;;;;;9.53;5.70;;;24.30;98.70;;;;;;4978758;28;20922;-88
2023/08/12 10:22:40;;;;;;;8.30;5.13;;;24.30;98.40;;;;;;4979407;28;20573;-88
2023/08/12 10:25:09;;;;;;;12.47;6.30;;;24.30;98.60;;;;;;4976583;28;20465;-88
2023/08/12 10:27:37;;;;;;;14.13;5.50;;;24.30;98.60;;;;;;4975083;28;20537;-88
2023/08/12 10:30:04;;;;;;;9.07;5.63;;;24.30;98.40;;;;;;4975194;28;20524;-87
2023/08/12 10:32:33;;;;;;;6.63;5.30;;;24.30;98.30;;;;;;4975511;28;20474;-89
2023/08/12 10:35:02;;;;;;;6.97;4.90;;;24.30;98.10;;;;;;4975047;28;20444;-89
2023/08/12 10:37:33;;;;;;;9.20;5.43;;;24.30;98.00;;;;;;4975282;28;20818;-88
2023/08/12 10:40:00;;;;;;;8.43;4.83;;;24.30;98.00;;;;;;4975428;28;20433;-89
2023/08/12 10:42:42;;;;;;;7.90;5.67;;;24.30;98.00;;;;;;4975193;28;20451;-89
2023/08/12 10:45:10;;;;;;;6.60;4.40;;;24.30;98.00;;;;;;4975051;28;20473;-88
2023/08/12 10:47:41;;;;;;;7.03;4.53;;;24.20;98.00;;;;;;4974873;28;20484;-88
2023/08/12 10:50:18;;;;;;;7.70;4.37;;;24.30;98.00;;;;;;4975189;28;20489;-88
2023/08/12 10:52:45;;;;;;;4.10;3.27;;;24.30;98.00;;;;;;4975137;28;20571;-87
2023/08/12 10:55:20;;;;;;;6.90;4.93;;;24.30;97.90;;;;;;4976254;28;20493;-88
2023/08/12 10:57:48;;;;;;;6.97;4.73;;;24.30;98.00;;;;;;4976702;28;20486;-88
2023/08/12 11:00:16;;;;;;;8.97;5.23;;;24.30;98.30;;;;;;4975826;28;20524;-83
2023/08/12 11:02:49;;;;;;;7.03;4.30;;;24.30;98.30;;;;;;4975340;28;20459;-88
2023/08/12 11:05:17;;;;;;;9.30;4.20;;;24.30;98.10;;;;;;4976182;28;20470;-88
2023/08/12 11:07:46;;;;;;;9.93;4.50;;;24.30;98.10;;;;;;4976443;28;20492;-89
2023/08/12 11:10:15;;;;;;;6.80;3.50;;;24.40;98.30;;;;;;4977317;28;20989;-88
2023/08/12 11:12:46;;;;;;;5.20;3.43;;;24.30;98.20;;;;;;4978554;28;20443;-90
2023/08/12 11:15:30;;;;;;;6.70;4.00;;;24.40;98.30;;;;;;4978593;28;20522;-88
2023/08/12 11:17:58;;;;;;;5.30;3.47;;;24.30;98.60;;;;;;4977168;28;20957;-91
2023/08/12 11:20:25;;;;;;;4.87;3.10;;;24.40;98.30;;;;;;4978866;28;20447;-90
2023/08/12 11:22:54;;;;;;;4.37;2.90;;;24.40;98.30;;;;;;4980233;28;20436;-90
2023/08/12 11:25:21;;;;;;;5.33;3.37;;;24.40;98.50;;;;;;4979270;28;20533;-90
2023/08/12 11:27:49;;;;;;;3.90;2.83;;;24.40;98.70;;;;;;4980561;28;20492;-91
2023/08/12 11:30:17;;;;;;;4.30;2.90;;;24.40;98.50;;;;;;4980422;28;20443;-90
2023/08/12 11:32:44;;;;;;;2.83;2.50;;;24.40;98.70;;;;;;4981215;28;20534;-91
2023/08/12 11:35:13;;;;;;;2.97;2.50;;;24.40;98.80;;;;;;4981742;28;20475;-91
2023/08/12 11:37:42;;;;;;;4.63;2.63;;;24.40;98.80;;;;;;4979995;28;20485;-90
2023/08/12 11:40:11;;;;;;;4.67;2.77;;;24.40;99.00;;;;;;4978190;28;20525;-89
2023/08/12 11:42:38;;;;;;;2.73;2.10;;;24.40;99.10;;;;;;4977329;28;20439;-90
2023/08/12 11:45:06;;;;;;;2.43;2.07;;;24.40;99.00;;;;;;4978904;28;20473;-88
2023/08/12 11:47:33;;;;;;;2.43;2.23;;;24.40;99.00;;;;;;4979514;28;20490;-90
2023/08/12 11:50:03;;;;;;;4.00;2.13;;;24.40;99.40;;;;;;4979677;28;20536;-91
2023/08/12 11:52:32;;;;;;;2.67;2.30;;;24.40;98.80;;;;;;4979086;28;20770;-87
2023/08/12 11:54:59;;;;;;;2.37;2.17;;;24.40;98.70;;;;;;4980784;28;20538;-89
2023/08/12 11:57:27;;;;;;;2.13;1.93;;;24.40;98.60;;;;;;4978474;28;20844;-89
2023/08/12 11:59:59;;;;;;;2.20;1.80;;;24.40;98.50;;;;;;4982479;28;20438;-89
2023/08/12 12:02:26;;;;;;;3.20;1.70;;;24.40;98.50;;;;;;4981480;28;20451;-89
2023/08/12 12:04:53;;;;;;;4.27;2.07;;;24.40;98.50;;;;;;4979493;28;20536;-88
2023/08/12 12:07:21;;;;;;;1.60;1.50;;;24.40;98.40;;;;;;4982535;28;20957;-90
2023/08/12 12:09:51;;;;;;;2.90;1.90;;;24.40;98.40;;;;;;4980476;28;20485;-90
2023/08/12 12:12:18;;;;;;;3.70;2.30;;;24.40;98.50;;;;;;4980850;28;20456;-87
2023/08/12 12:14:47;;;;;;;3.07;2.30;;;24.40;98.20;;;;;;4982835;28;21021;-87
2023/08/12 12:17:16;;;;;;;2.13;1.93;;;24.40;98.30;;;;;;4980878;28;20474;-89
2023/08/12 12:19:42;;;;;;;1.93;1.67;;;24.40;98.20;;;;;;4960801;29;20446;-88
2023/08/12 12:22:11;;;;;;;2.17;1.73;;;24.40;98.20;;;;;;4961979;28;21011;-94
2023/08/12 12:24:49;;;;;;;1.90;1.70;;;24.40;98.20;;;;;;4980544;28;20457;-89
2023/08/12 12:27:17;;;;;;;2.23;2.03;;;24.40;98.10;;;;;;4976444;28;20556;-89
2023/08/12 12:29:44;;;;;;;2.00;1.80;;;24.40;98.30;;;;;;4980779;28;20478;-89
2023/08/12 12:32:11;;;;;;;1.70;1.53;;;24.40;98.50;;;;;;4981890;28;20501;-90
2023/08/12 12:34:39;;;;;;;1.70;1.60;;;24.40;98.50;;;;;;4979393;28;20479;-89
2023/08/12 12:37:09;;;;;;;2.43;1.60;;;24.40;98.40;;;;;;4984149;28;20481;-86
2023/08/12 12:39:35;;;;;;;3.23;2.00;;;24.40;98.50;;;;;;4977421;28;20811;-88
2023/08/12 12:42:04;;;;;;;2.53;1.70;;;24.40;98.30;;;;;;4976708;28;20948;-81
2023/08/12 12:44:31;;;;;;;2.83;2.10;;;24.40;98.50;;;;;;4975466;28;20450;-82
2023/08/12 12:46:57;;;;;;;3.07;2.27;;;24.40;98.60;;;;;;4976038;28;20981;-82
2023/08/12 12:49:24;;;;;;;2.57;1.70;;;24.40;98.70;;;;;;4975844;28;20482;-82
2023/08/12 12:51:51;;;;;;;5.83;2.20;;;24.40;98.70;;;;;;4976151;28;20452;-81